Time;durP1;ratioP1;P1;durP2;ratioP2;P2;SDS_P1;SDS_P2;PMS_P1;PMS_P2;Temp;Humidity;BMP_temperature;BMP_pressure;BME280_temperature;BME280_humidity;BME280_pressure;Samples;Min_cycle;Max_cycle;Signal;HPM_P1;HPM_P2
2023/01/19 00:00:45;;;;;;;;;;;;;;;1.47;80.37;99815.05;106111;1270;73401;-87
2023/01/19 00:03:45;;;;;;;;;;;;;;;1.50;80.34;99814.84;106095;1270;124604;-85
2023/01/19 00:06:12;;;;;;;;;;;;;;;1.52;80.45;99815.48;106255;1271;72782;-85
2023/01/19 00:08:43;;;;;;;;;;;;;;;1.55;80.44;99818.89;106166;1270;61434;-85
2023/01/19 00:11:11;;;;;;;;;;;;;;;1.57;80.47;99817.24;105923;1270;124907;-85
2023/01/19 00:13:40;;;;;;;;;;;;;;;1.58;80.52;99824.05;106451;1270;73115;-85
2023/01/19 00:16:16;;;;;;;;;;;;;;;1.59;80.41;99828.38;106158;1270;67455;-85
2023/01/19 00:18:46;;;;;;;;;;;;;;;1.60;80.52;99828.77;106190;1271;71416;-85
2023/01/19 00:21:16;;;;;;;;;;;;;;;1.60;80.45;99833.98;106186;1270;124667;-85
2023/01/19 00:24:01;;;;;;;;;;;;;;;1.61;80.47;99838.00;105918;1270;61404;-87
2023/01/19 00:26:29;;;;;;;;;;;;;;;1.63;80.57;99843.13;106151;1270;73974;-87
2023/01/19 00:28:57;;;;;;;;;;;;;;;1.65;80.47;99850.30;106042;1270;124272;-88
2023/01/19 00:31:25;;;;;;;;;;;;;;;1.65;80.40;99853.58;106080;1270;71416;-87
2023/01/19 00:33:52;;;;;;;;;;;;;;;1.65;80.40;99855.66;106262;1270;124592;-87
2023/01/19 00:36:21;;;;;;;;;;;;;;;1.66;80.44;99856.91;106287;1272;59766;-87
2023/01/19 00:38:49;;;;;;;;;;;;;;;1.66;80.59;99863.15;105787;1270;74779;-87
2023/01/19 00:42:38;;;;;;;;;;;;;;;1.69;80.59;99873.31;106022;1270;124942;-87
2023/01/19 00:44:06;;;;;;;;;;;;;;;1.70;80.40;99881.11;106813;1271;73054;-84
2023/01/19 00:46:33;;;;;;;;;;;;;;;1.69;80.25;99889.05;106289;1270;124502;-85
2023/01/19 00:49:01;;;;;;;;;;;;;;;1.70;80.33;99895.13;106795;1275;61288;-85
2023/01/19 00:51:29;;;;;;;;;;;;;;;1.72;80.53;99896.11;106396;1269;124589;-87
2023/01/19 00:54:03;;;;;;;;;;;;;;;1.74;80.44;99898.11;106224;1270;67541;-87
2023/01/19 00:56:31;;;;;;;;;;;;;;;1.72;80.28;99898.85;106477;1270;73263;-88
2023/01/19 00:58:58;;;;;;;;;;;;;;;1.73;80.35;99899.45;106607;1272;124598;-87
2023/01/19 01:01:25;;;;;;;;;;;;;;;1.76;80.60;99901.30;106140;1276;61298;-87
2023/01/19 01:04:00;;;;;;;;;;;;;;;1.78;80.51;99906.90;106143;1270;124532;-88
2023/01/19 01:06:27;;;;;;;;;;;;;;;1.80;80.69;99909.92;106553;1272;66131;-85
2023/01/19 01:09:10;;;;;;;;;;;;;;;1.81;80.55;99911.38;106364;1270;71282;-85
2023/01/19 01:11:38;;;;;;;;;;;;;;;1.84;80.77;99921.02;106606;1273;61282;-85
2023/01/19 01:14:05;;;;;;;;;;;;;;;1.87;80.68;99929.31;106331;1270;60072;-85
2023/01/19 01:16:32;;;;;;;;;;;;;;;1.89;80.70;99942.21;106179;1270;124531;-85
2023/01/19 01:19:01;;;;;;;;;;;;;;;1.91;80.72;99952.49;106300;1270;66823;-85
2023/01/19 01:21:50;;;;;;;;;;;;;;;1.91;80.59;99959.79;106033;1270;125125;-87
2023/01/19 01:24:18;;;;;;;;;;;;;;;1.93;80.69;99959.54;106324;1270;61263;-84
2023/01/19 01:26:51;;;;;;;;;;;;;;;1.95;80.51;99965.16;106232;1270;61346;-85
2023/01/19 01:29:19;;;;;;;;;;;;;;;1.94;80.57;99966.85;106119;1273;124485;-85
2023/01/19 01:31:46;;;;;;;;;;;;;;;1.94;80.70;99970.14;106331;1270;65631;-85
2023/01/19 01:34:13;;;;;;;;;;;;;;;1.93;80.54;99970.80;106502;1271;123943;-85
2023/01/19 01:36:49;;;;;;;;;;;;;;;1.93;80.71;99973.18;106639;1273;61400;-87
2023/01/19 01:39:18;;;;;;;;;;;;;;;1.92;80.72;99975.08;106423;1269;124486;-85
2023/01/19 01:41:51;;;;;;;;;;;;;;;1.93;80.63;99980.83;107285;1270;73486;-85
2023/01/19 01:44:37;;;;;;;;;;;;;;;1.92;80.68;99982.83;106246;1275;66837;-85
2023/01/19 01:50:21;;;;;;;;;;;;;;;1.88;80.56;99993.88;106376;1270;61316;-85
2023/01/19 01:52:51;;;;;;;;;;;;;;;1.83;80.60;100005.42;106432;1270;123563;-85
2023/01/19 01:55:24;;;;;;;;;;;;;;;1.82;80.79;100011.59;106472;1274;74763;-85
2023/01/19 01:57:56;;;;;;;;;;;;;;;1.79;80.71;100014.02;106325;1270;124024;-85
2023/01/19 02:00:26;;;;;;;;;;;;;;;1.74;80.62;100016.94;106123;1273;71157;-87
2023/01/19 02:02:59;;;;;;;;;;;;;;;1.71;80.82;100016.29;106197;1271;59901;-88
2023/01/19 02:05:27;;;;;;;;;;;;;;;1.67;80.76;100015.39;106147;1270;124358;-87
2023/01/19 02:13:46;;;;;;;;;;;;;;;1.69;81.03;100013.91;106214;1270;73290;-85
2023/01/19 02:16:26;;;;;;;;;;;;;;;1.70;80.89;100008.77;106341;1269;125132;-85
2023/01/19 02:18:53;;;;;;;;;;;;;;;1.69;81.09;100009.07;106172;1273;61280;-85
2023/01/19 02:21:25;;;;;;;;;;;;;;;1.70;81.20;100010.31;106311;1270;125052;-85
2023/01/19 02:24:01;;;;;;;;;;;;;;;1.66;81.04;100007.69;106318;1273;65749;-88
2023/01/19 02:26:38;;;;;;;;;;;;;;;1.66;80.94;100011.86;105969;1270;70845;-87
2023/01/19 02:29:09;;;;;;;;;;;;;;;1.66;81.07;100010.66;106375;1271;124726;-85
2023/01/19 02:31:37;;;;;;;;;;;;;;;1.67;80.97;100013.65;106946;1270;60821;-85
2023/01/19 02:34:05;;;;;;;;;;;;;;;1.67;81.14;100013.12;106972;1270;124554;-85
2023/01/19 02:36:51;;;;;;;;;;;;;;;1.67;80.91;100015.19;106431;1270;65895;-85
2023/01/19 02:39:19;;;;;;;;;;;;;;;1.67;81.04;100014.69;106615;1270;124721;-85
2023/01/19 02:41:48;;;;;;;;;;;;;;;1.69;81.10;100012.73;106544;1273;59511;-85
2023/01/19 02:44:15;;;;;;;;;;;;;;;1.70;81.11;100014.64;106229;1271;60346;-88
2023/01/19 02:46:42;;;;;;;;;;;;;;;1.69;80.95;100018.05;106592;1273;124794;-85
2023/01/19 02:49:10;;;;;;;;;;;;;;;1.68;81.06;100023.20;106316;1270;67108;-87
2023/01/19 02:51:37;;;;;;;;;;;;;;;1.67;80.96;100024.02;106111;1273;125004;-87
2023/01/19 02:54:22;;;;;;;;;;;;;;;1.66;80.91;100030.56;106324;1272;61310;-87
2023/01/19 02:57:08;;;;;;;;;;;;;;;1.67;80.93;100038.91;106163;1273;61250;-88
2023/01/19 02:59:54;;;;;;;;;;;;;;;1.67;80.93;100044.94;105997;1270;76465;-88
2023/01/19 03:02:46;;;;;;;;;;;;;;;1.68;81.00;100048.45;106513;1270;65571;-88
2023/01/19 03:08:43;;;;;;;;;;;;;;;1.72;80.90;100056.26;106369;1273;61164;-87
2023/01/19 03:11:11;;;;;;;;;;;;;;;1.74;80.85;100060.35;106196;1269;124570;-87
2023/01/19 03:13:43;;;;;;;;;;;;;;;1.76;80.77;100061.31;106144;1270;74708;-85
2023/01/19 03:16:20;;;;;;;;;;;;;;;1.78;80.81;100063.96;106175;1270;124606;-85
2023/01/19 03:18:54;;;;;;;;;;;;;;;1.79;80.79;100067.17;106293;1269;72770;-85
2023/01/19 03:21:30;;;;;;;;;;;;;;;1.81;80.64;100072.80;106241;1269;61183;-85
2023/01/19 03:24:01;;;;;;;;;;;;;;;1.86;80.90;100078.20;106241;1270;61301;-85
2023/01/19 03:26:29;;;;;;;;;;;;;;;1.88;80.77;100078.85;106439;1270;74908;-85
2023/01/19 03:28:57;;;;;;;;;;;;;;;1.90;80.63;100081.54;106240;1270;66862;-85
2023/01/19 03:31:25;;;;;;;;;;;;;;;1.92;80.62;100081.61;106391;1270;73475;-85
2023/01/19 03:33:53;;;;;;;;;;;;;;;1.95;80.80;100084.05;106355;1273;124209;-84
2023/01/19 03:36:28;;;;;;;;;;;;;;;1.97;80.62;100088.26;106232;1271;61310;-85
2023/01/19 03:38:56;;;;;;;;;;;;;;;1.98;80.50;100090.56;106083;1271;74747;-85
2023/01/19 03:41:23;;;;;;;;;;;;;;;1.95;80.33;100090.09;105972;1270;124577;-85
2023/01/19 03:43:50;;;;;;;;;;;;;;;1.91;80.43;100095.44;106154;1276;71269;-84
2023/01/19 03:46:24;;;;;;;;;;;;;;;1.91;80.28;100098.69;106116;1271;124559;-85
2023/01/19 03:48:51;;;;;;;;;;;;;;;1.91;80.55;100100.41;106390;1270;61843;-84
2023/01/19 03:51:37;;;;;;;;;;;;;;;1.90;80.54;100101.08;106338;1273;123966;-85
2023/01/19 03:54:10;;;;;;;;;;;;;;;1.88;80.52;100100.48;106145;1270;67750;-85
2023/01/19 03:56:43;;;;;;;;;;;;;;;1.87;80.37;100099.88;106186;1270;72747;-84
2023/01/19 03:59:17;;;;;;;;;;;;;;;1.87;80.60;100105.59;106219;1271;124409;-87
2023/01/19 04:01:49;;;;;;;;;;;;;;;1.86;80.51;100113.48;106067;1270;61391;-87
2023/01/19 04:04:16;;;;;;;;;;;;;;;1.86;80.66;100116.23;106383;1270;123856;-85
2023/01/19 04:06:45;;;;;;;;;;;;;;;1.88;80.75;100108.92;106442;1270;65854;-85
2023/01/19 04:09:12;;;;;;;;;;;;;;;1.87;80.77;100112.89;106108;1271;72758;-85
2023/01/19 04:11:42;;;;;;;;;;;;;;;1.85;80.57;100110.33;106275;1271;61070;-85
2023/01/19 04:14:09;;;;;;;;;;;;;;;1.83;80.53;100108.52;106468;1271;61340;-85
2023/01/19 04:16:40;;;;;;;;;;;;;;;1.80;80.68;100107.36;106076;1270;124629;-84
2023/01/19 04:19:07;;;;;;;;;;;;;;;1.77;80.65;100109.09;106479;1270;66133;-85
2023/01/19 04:21:34;;;;;;;;;;;;;;;1.73;80.79;100105.29;106332;1270;124872;-84
2023/01/19 04:24:05;;;;;;;;;;;;;;;1.73;80.79;100101.96;106394;1270;61667;-87
2023/01/19 04:26:51;;;;;;;;;;;;;;;1.76;80.77;100101.44;106448;1272;61220;-87
2023/01/19 04:29:18;;;;;;;;;;;;;;;1.80;80.94;100098.48;106268;1270;124845;-85
2023/01/19 04:31:48;;;;;;;;;;;;;;;1.83;80.83;100096.39;106322;1276;67126;-85
2023/01/19 04:34:15;;;;;;;;;;;;;;;1.83;80.68;100096.23;106283;1270;125503;-85
2023/01/19 04:36:44;;;;;;;;;;;;;;;1.80;80.74;100099.91;106392;1270;61394;-88
2023/01/19 04:39:13;;;;;;;;;;;;;;;1.77;80.67;100104.08;106126;1275;61157;-88
2023/01/19 04:41:56;;;;;;;;;;;;;;;1.72;80.47;100103.48;105918;1275;124579;-88
2023/01/19 04:44:46;;;;;;;;;;;;;;;1.66;80.39;100104.04;106113;1270;67633;-85
2023/01/19 04:47:22;;;;;;;;;;;;;;;1.61;80.45;100104.14;106124;1270;124648;-85
2023/01/19 04:49:56;;;;;;;;;;;;;;;1.59;80.45;100110.61;106346;1270;59659;-88
2023/01/19 04:52:35;;;;;;;;;;;;;;;1.53;80.47;100110.48;106269;1273;124708;-88
2023/01/19 04:55:02;;;;;;;;;;;;;;;1.48;80.53;100109.38;106050;1271;75440;-87
2023/01/19 04:57:42;;;;;;;;;;;;;;;1.43;80.39;100111.00;106127;1275;124900;-87
2023/01/19 05:00:25;;;;;;;;;;;;;;;1.34;80.46;100109.56;106444;1273;72952;-88
2023/01/19 05:02:54;;;;;;;;;;;;;;;1.28;80.32;100109.02;106319;1273;61508;-85
2023/01/19 05:05:21;;;;;;;;;;;;;;;1.22;80.44;100108.88;106325;1270;124691;-85
2023/01/19 05:07:48;;;;;;;;;;;;;;;1.13;80.40;100107.59;106486;1270;73187;-87
2023/01/19 05:10:15;;;;;;;;;;;;;;;1.03;80.33;100109.29;106158;1270;124644;-88
2023/01/19 05:12:43;;;;;;;;;;;;;;;0.92;80.05;100111.50;106096;1273;73064;-87
2023/01/19 05:15:10;;;;;;;;;;;;;;;0.82;80.12;100116.13;106054;1276;61295;-87
2023/01/19 05:17:38;;;;;;;;;;;;;;;0.73;80.24;100120.34;106540;1276;124928;-87
2023/01/19 05:20:06;;;;;;;;;;;;;;;0.64;80.23;100117.77;106398;1275;74716;-87
2023/01/19 05:22:33;;;;;;;;;;;;;;;0.54;80.15;100121.55;106451;1270;124987;-84
2023/01/19 05:25:07;;;;;;;;;;;;;;;0.47;80.33;100122.54;106503;1276;71550;-85
2023/01/19 05:27:41;;;;;;;;;;;;;;;0.39;80.35;100120.55;106194;1276;124691;-85
2023/01/19 05:30:08;;;;;;;;;;;;;;;0.33;80.39;100116.77;106366;1271;61338;-85
2023/01/19 05:32:41;;;;;;;;;;;;;;;0.27;80.32;100114.31;106325;1270;73378;-85
2023/01/19 05:35:09;;;;;;;;;;;;;;;0.20;80.66;100115.84;106294;1274;124618;-85
2023/01/19 05:37:36;;;;;;;;;;;;;;;0.14;80.61;100115.52;106421;1270;72794;-84
2023/01/19 05:40:08;;;;;;;;;;;;;;;0.10;80.80;100122.38;106328;1273;125384;-87
2023/01/19 05:42:41;;;;;;;;;;;;;;;0.06;80.86;100131.98;106430;1273;61151;-87
2023/01/19 05:45:08;;;;;;;;;;;;;;;0.03;80.76;100137.14;106302;1271;75260;-87
2023/01/19 05:47:35;;;;;;;;;;;;;;;-0.03;80.88;100133.16;106241;1270;124575;-87
2023/01/19 05:50:02;;;;;;;;;;;;;;;-0.09;80.64;100133.02;106525;1270;72848;-87
2023/01/19 05:52:30;;;;;;;;;;;;;;;-0.15;80.93;100139.23;106726;1273;124624;-87
2023/01/19 05:54:57;;;;;;;;;;;;;;;-0.19;80.93;100135.21;106654;1271;59553;-84
2023/01/19 05:57:27;;;;;;;;;;;;;;;-0.24;80.96;100135.98;106197;1271;124371;-85
2023/01/19 06:00:00;;;;;;;;;;;;;;;-0.29;81.02;100137.05;106119;1270;65578;-86
2023/01/19 06:02:33;;;;;;;;;;;;;;;-0.33;81.15;100135.57;106286;1270;72035;-86
2023/01/19 06:05:03;;;;;;;;;;;;;;;-0.37;81.31;100140.55;106141;1273;124158;-88
2023/01/19 06:07:36;;;;;;;;;;;;;;;-0.40;81.23;100150.34;106288;1270;61333;-86
2023/01/19 06:10:03;;;;;;;;;;;;;;;-0.44;81.38;100163.25;106513;1269;124029;-86
2023/01/19 06:12:31;;;;;;;;;;;;;;;-0.46;81.53;100169.66;106384;1274;67614;-83
2023/01/19 06:15:13;;;;;;;;;;;;;;;-0.52;81.44;100173.08;106596;1273;70444;-87
2023/01/19 06:17:40;;;;;;;;;;;;;;;-0.59;81.28;100171.13;106140;1276;124714;-89
2023/01/19 06:20:07;;;;;;;;;;;;;;;-0.65;81.39;100172.17;105988;1270;59533;-86
2023/01/19 06:22:34;;;;;;;;;;;;;;;-0.68;81.49;100171.60;105953;1270;124214;-87
2023/01/19 06:25:05;;;;;;;;;;;;;;;-0.74;81.27;100173.87;106066;1276;65724;-88
2023/01/19 06:27:38;;;;;;;;;;;;;;;-0.80;81.52;100182.13;106086;1273;124472;-87
2023/01/19 06:30:13;;;;;;;;;;;;;;;-0.81;81.60;100181.50;106142;1274;60466;-87
2023/01/19 06:32:43;;;;;;;;;;;;;;;-0.84;81.79;100181.70;106279;1270;61190;-87
2023/01/19 06:35:17;;;;;;;;;;;;;;;-0.86;81.62;100187.08;106337;1273;124012;-85
2023/01/19 06:38:05;;;;;;;;;;;;;;;-0.86;81.80;100183.80;106412;1270;66100;-87
2023/01/19 06:40:52;;;;;;;;;;;;;;;-0.86;81.95;100177.94;106123;1270;124217;-87
2023/01/19 06:43:19;;;;;;;;;;;;;;;-0.88;82.09;100180.59;106433;1273;61141;-83
2023/01/19 06:45:46;;;;;;;;;;;;;;;-0.87;82.13;100188.05;106289;1270;124371;-83
2023/01/19 06:48:33;;;;;;;;;;;;;;;-0.86;82.14;100186.19;106337;1270;74746;-84
2023/01/19 06:51:02;;;;;;;;;;;;;;;-0.86;82.06;100191.38;106479;1273;66398;-84
2023/01/19 06:53:29;;;;;;;;;;;;;;;-0.88;82.03;100205.02;106005;1271;124161;-85
2023/01/19 06:56:00;;;;;;;;;;;;;;;-0.93;82.05;100209.37;106132;1275;61525;-84
2023/01/19 06:58:28;;;;;;;;;;;;;;;-0.98;81.90;100215.10;106337;1270;123978;-85
2023/01/19 07:00:58;;;;;;;;;;;;;;;-1.00;82.03;100217.70;106383;1270;75351;-89
2023/01/19 07:03:25;;;;;;;;;;;;;;;-1.01;82.22;100221.98;106519;1271;65783;-88
2023/01/19 07:06:01;;;;;;;;;;;;;;;-1.04;82.06;100228.00;106253;1274;71528;-89
2023/01/19 07:08:41;;;;;;;;;;;;;;;-1.05;82.16;100231.69;106290;1270;61231;-88
2023/01/19 07:11:09;;;;;;;;;;;;;;;-1.07;82.15;100232.09;106167;1269;61453;-84
2023/01/19 07:13:37;;;;;;;;;;;;;;;-1.06;82.32;100242.12;106400;1270;74429;-89
2023/01/19 07:16:05;;;;;;;;;;;;;;;-1.06;82.41;100250.59;106259;1270;125340;-89
2023/01/19 07:18:35;;;;;;;;;;;;;;;-1.05;82.49;100259.80;106263;1271;72804;-84
2023/01/19 07:21:14;;;;;;;;;;;;;;;-1.02;82.48;100267.71;106326;1271;59919;-89
2023/01/19 07:23:42;;;;;;;;;;;;;;;-0.97;82.33;100279.39;105928;1270;124592;-85
2023/01/19 07:26:24;;;;;;;;;;;;;;;-0.90;82.69;100288.77;105937;1271;74770;-84
2023/01/19 07:28:59;;;;;;;;;;;;;;;-0.77;82.79;100295.78;105914;1275;125182;-88
2023/01/19 07:31:32;;;;;;;;;;;;;;;-0.61;83.14;100307.11;106033;1275;71427;-87
2023/01/19 07:34:00;;;;;;;;;;;;;;;-0.48;83.06;100312.23;106060;1271;125905;-88
2023/01/19 07:36:28;;;;;;;;;;;;;;;-0.36;82.95;100316.94;106384;1273;61314;-87
2023/01/19 07:38:56;;;;;;;;;;;;;;;-0.25;83.04;100324.01;106383;1270;73408;-88
2023/01/19 07:41:23;;;;;;;;;;;;;;;-0.12;82.98;100329.59;106320;1270;124995;-87
2023/01/19 07:44:10;;;;;;;;;;;;;;;0.01;83.00;100331.77;106272;1276;72473;-86
2023/01/19 07:46:46;;;;;;;;;;;;;;;0.15;83.11;100334.36;106189;1275;125685;-88
2023/01/19 07:49:45;;;;;;;;;;;;;;;0.26;82.93;100341.58;106196;1273;60915;-87
2023/01/19 07:52:15;;;;;;;;;;;;;;;0.39;82.95;100348.17;106197;1272;124693;-87
2023/01/19 07:54:43;;;;;;;;;;;;;;;0.48;82.76;100350.98;106284;1270;65337;-83
2023/01/19 07:57:10;;;;;;;;;;;;;;;0.57;82.72;100349.79;106629;1270;72790;-82
2023/01/19 07:59:37;;;;;;;;;;;;;;;0.68;82.72;100344.36;106438;1270;124770;-84
2023/01/19 08:02:04;;;;;;;;;;;;;;;0.76;82.47;100344.30;106649;1270;61387;-83
2023/01/19 08:04:31;;;;;;;;;;;;;;;0.81;82.45;100341.32;106234;1270;124696;-84
2023/01/19 08:06:58;;;;;;;;;;;;;;;0.87;82.08;100346.98;106221;1269;67488;-84
2023/01/19 08:09:25;;;;;;;;;;;;;;;0.86;81.91;100348.88;106346;1270;72930;-85
2023/01/19 08:11:52;;;;;;;;;;;;;;;0.83;81.70;100347.80;106358;1273;61384;-83
2023/01/19 08:14:20;;;;;;;;;;;;;;;0.80;81.78;100348.84;106263;1270;61240;-83
2023/01/19 08:16:48;;;;;;;;;;;;;;;0.78;81.69;100356.02;105794;1276;125030;-83
2023/01/19 08:19:18;;;;;;;;;;;;;;;0.74;81.41;100362.98;106516;1273;65554;-83
2023/01/19 08:21:45;;;;;;;;;;;;;;;0.68;81.31;100365.58;106469;1270;125282;-84
2023/01/19 08:24:17;;;;;;;;;;;;;;;0.63;81.38;100367.73;106570;1270;59275;-83
2023/01/19 08:26:45;;;;;;;;;;;;;;;0.60;81.50;100369.80;106901;1270;60566;-84
2023/01/19 08:29:12;;;;;;;;;;;;;;;0.58;81.39;100367.95;104764;1271;2409038;-88
2023/01/19 08:31:39;;;;;;;;;;;;;;;0.60;81.50;100364.06;106559;1270;64919;-84
2023/01/19 08:34:07;;;;;;;;;;;;;;;0.63;81.63;100364.78;106310;1276;124805;-84
2023/01/19 08:36:34;;;;;;;;;;;;;;;0.62;81.51;100365.42;106747;1269;60892;-84
2023/01/19 08:39:23;;;;;;;;;;;;;;;0.63;81.45;100370.64;106628;1275;60583;-85
2023/01/19 08:41:54;;;;;;;;;;;;;;;0.62;81.41;100373.33;106977;1273;124504;-88
2023/01/19 08:44:23;;;;;;;;;;;;;;;0.63;81.53;100372.35;106463;1270;67181;-86
2023/01/19 08:46:50;;;;;;;;;;;;;;;0.63;81.52;100378.08;106449;1270;124166;-83
2023/01/19 08:49:17;;;;;;;;;;;;;;;0.63;81.55;100379.45;106524;1272;61375;-83
2023/01/19 08:51:47;;;;;;;;;;;;;;;0.65;81.70;100381.84;106557;1270;124004;-84
2023/01/19 08:54:20;;;;;;;;;;;;;;;0.66;81.55;100384.27;106549;1270;73492;-83
2023/01/19 08:56:51;;;;;;;;;;;;;;;0.63;81.33;100387.93;106570;1270;65918;-83
2023/01/19 08:59:18;;;;;;;;;;;;;;;0.63;81.49;100383.95;107256;1269;123837;-83
2023/01/19 09:01:45;;;;;;;;;;;;;;;0.64;81.55;100381.09;106827;1269;59678;-83
2023/01/19 09:04:15;;;;;;;;;;;;;;;0.65;81.55;100380.45;106870;1273;124063;-83
2023/01/19 09:06:42;;;;;;;;;;;;;;;0.66;81.44;100378.63;106979;1270;73410;-84
2023/01/19 09:09:09;;;;;;;;;;;;;;;0.68;81.47;100383.55;106839;1270;67477;-83
2023/01/19 09:11:36;;;;;;;;;;;;;;;0.69;81.52;100384.80;106534;1270;123860;-83
2023/01/19 09:14:04;;;;;;;;;;;;;;;0.67;81.59;100385.24;106697;1276;61265;-86
2023/01/19 09:17:20;;;;;;;;;;;;;;;0.67;81.52;100383.65;106454;1273;124278;-84
2023/01/19 09:19:54;;;;;;;;;;;;;;;0.70;81.71;100385.04;106658;1270;72798;-84
2023/01/19 09:22:22;;;;;;;;;;;;;;;0.73;81.79;100387.48;106821;1270;123800;-84
2023/01/19 09:24:50;;;;;;;;;;;;;;;0.76;81.88;100389.89;106686;1275;71331;-83
2023/01/19 09:27:30;;;;;;;;;;;;;;;0.80;81.78;100390.80;106567;1270;61301;-87
2023/01/19 09:33:31;;;;;;;;;;;;;;;0.86;81.95;100395.66;106405;1275;74900;-88
2023/01/19 09:36:05;;;;;;;;;;;;;;;0.88;81.84;100401.66;106707;1270;67164;-89
2023/01/19 09:38:38;;;;;;;;;;;;;;;0.90;81.77;100397.81;106222;1273;72449;-86
2023/01/19 09:41:11;;;;;;;;;;;;;;;0.93;81.76;100400.52;106171;1270;124710;-84
2023/01/19 09:43:44;;;;;;;;;;;;;;;0.94;81.82;100401.16;106249;1273;61342;-84
2023/01/19 09:46:13;;;;;;;;;;;;;;;1.00;81.64;100398.53;106269;1275;124928;-83
2023/01/19 09:48:47;;;;;;;;;;;;;;;1.06;81.78;100397.19;106371;1270;68207;-84
2023/01/19 09:51:18;;;;;;;;;;;;;;;1.13;81.69;100393.23;106443;1274;73369;-83
2023/01/19 09:53:55;;;;;;;;;;;;;;;1.16;81.49;100392.91;106384;1269;124537;-86
2023/01/19 09:56:22;;;;;;;;;;;;;;;1.19;81.56;100394.93;106543;1270;60372;-84
2023/01/19 09:58:49;;;;;;;;;;;;;;;1.23;81.59;100393.83;106476;1274;124596;-83
2023/01/19 10:01:25;;;;;;;;;;;;;;;1.26;81.58;100391.36;106421;1273;65909;-83
2023/01/19 10:04:04;;;;;;;;;;;;;;;1.31;81.44;100393.05;105950;1273;125051;-86
2023/01/19 10:06:38;;;;;;;;;;;;;;;1.36;81.46;100391.73;106425;1273;61521;-83
2023/01/19 10:09:31;;;;;;;;;;;;;;;1.37;81.40;100392.51;106465;1270;59760;-83
2023/01/19 10:12:00;;;;;;;;;;;;;;;1.41;81.28;100393.23;106325;1273;124912;-83
2023/01/19 10:14:48;;;;;;;;;;;;;;;1.43;81.38;100395.40;106350;1271;65666;-84
2023/01/19 10:17:38;;;;;;;;;;;;;;;1.43;81.36;100391.99;106192;1270;124580;-83
2023/01/19 10:20:07;;;;;;;;;;;;;;;1.45;81.17;100395.19;106179;1270;60551;-84
2023/01/19 10:22:34;;;;;;;;;;;;;;;1.48;81.15;100399.70;106938;1273;124629;-84
2023/01/19 10:25:04;;;;;;;;;;;;;;;1.53;81.09;100400.46;107003;1270;73422;-85
2023/01/19 10:27:33;;;;;;;;;;;;;;;1.58;80.97;100392.77;106347;1276;67139;-83
2023/01/19 10:30:00;;;;;;;;;;;;;;;1.63;81.02;100391.70;106344;1269;124388;-82
2023/01/19 10:32:29;;;;;;;;;;;;;;;1.69;81.15;100386.85;106556;1271;61318;-84
2023/01/19 10:34:58;;;;;;;;;;;;;;;1.75;80.94;100384.56;106615;1270;124599;-84
2023/01/19 10:37:32;;;;;;;;;;;;;;;1.81;80.89;100385.90;106293;1273;75280;-86
2023/01/19 10:40:07;;;;;;;;;;;;;;;1.86;80.78;100381.88;106446;1270;124821;-83
2023/01/19 10:42:40;;;;;;;;;;;;;;;1.90;80.73;100379.81;106610;1270;73095;-85
2023/01/19 10:45:15;;;;;;;;;;;;;;;1.93;80.70;100380.19;106384;1270;61336;-82
2023/01/19 10:47:42;;;;;;;;;;;;;;;1.96;80.66;100377.34;106335;1270;124040;-90
2023/01/19 10:50:24;;;;;;;;;;;;;;;2.01;80.58;100378.17;106431;1271;75430;-88
2023/01/19 10:52:51;;;;;;;;;;;;;;;2.08;80.72;100379.22;106635;1275;123856;-82
2023/01/19 10:55:22;;;;;;;;;;;;;;;2.15;80.63;100379.06;106799;1270;73329;-85
2023/01/19 10:57:50;;;;;;;;;;;;;;;2.23;80.67;100378.65;106545;1270;124200;-88
2023/01/19 11:00:36;;;;;;;;;;;;;;;2.31;80.65;100377.65;106618;1270;61402;-84
2023/01/19 11:03:22;;;;;;;;;;;;;;;2.39;80.57;100376.13;107040;1270;74256;-82
2023/01/19 11:05:49;;;;;;;;;;;;;;;2.45;80.59;100374.59;107002;1270;124311;-81
2023/01/19 11:08:26;;;;;;;;;;;;;;;2.52;80.42;100372.69;106604;1270;72437;-82
2023/01/19 11:11:03;;;;;;;;;;;;;;;2.57;80.34;100372.71;106253;1270;124394;-83
2023/01/19 11:13:35;;;;;;;;;;;;;;;2.58;80.08;100371.05;106320;1270;59375;-88
2023/01/19 11:16:07;;;;;;;;;;;;;;;2.58;79.76;100374.36;106087;1270;124591;-83
2023/01/19 11:18:35;;;;;;;;;;;;;;;2.58;79.81;100373.47;106501;1270;67251;-87
2023/01/19 11:21:16;;;;;;;;;;;;;;;2.56;79.59;100371.48;106157;1271;72444;-90
2023/01/19 11:23:45;;;;;;;;;;;;;;;2.56;79.53;100373.54;106093;1277;124980;-82
2023/01/19 11:26:15;;;;;;;;;;;;;;;2.56;79.66;100376.50;106198;1273;61436;-86
2023/01/19 11:28:46;;;;;;;;;;;;;;;2.54;79.55;100380.23;106098;1270;123877;-86
2023/01/19 11:34:32;;;;;;;;;;;;;;;2.48;79.45;100379.94;106464;1273;124467;-82
2023/01/19 11:37:03;;;;;;;;;;;;;;;2.49;79.47;100386.39;106624;1276;61314;-80
2023/01/19 11:39:32;;;;;;;;;;;;;;;2.55;79.77;100385.81;106502;1270;61316;-80
2023/01/19 11:42:00;;;;;;;;;;;;;;;2.64;79.64;100380.52;106519;1270;123670;-80
2023/01/19 11:44:29;;;;;;;;;;;;;;;2.73;79.71;100382.92;106646;1270;65875;-80
2023/01/19 11:47:00;;;;;;;;;;;;;;;2.81;79.65;100381.73;106640;1270;123962;-81
2023/01/19 11:49:32;;;;;;;;;;;;;;;2.85;79.55;100377.27;106640;1270;61329;-80
2023/01/19 11:52:18;;;;;;;;;;;;;;;2.87;79.32;100377.52;106996;1270;125033;-80
2023/01/19 11:54:51;;;;;;;;;;;;;;;2.88;79.44;100380.72;106855;1270;74713;-80
2023/01/19 11:57:19;;;;;;;;;;;;;;;2.91;79.34;100377.38;106712;1276;66388;-80
2023/01/19 11:59:48;;;;;;;;;;;;;;;2.94;79.18;100378.59;106341;1276;124814;-80
2023/01/19 12:02:19;;;;;;;;;;;;;;;3.01;79.17;100380.14;106183;1273;61220;-81
2023/01/19 12:04:47;;;;;;;;;;;;;;;3.10;79.32;100378.48;106132;1270;124740;-80
2023/01/19 12:07:23;;;;;;;;;;;;;;;3.21;79.23;100376.27;106299;1270;73885;-81
2023/01/19 12:10:21;;;;;;;;;;;;;;;3.32;79.32;100371.75;105910;1270;124873;-87
2023/01/19 12:13:20;;;;;;;;;;;;;;;3.42;78.95;100372.75;106144;1273;72480;-87
2023/01/19 12:15:50;;;;;;;;;;;;;;;3.45;78.64;100373.44;106046;1270;124901;-86
2023/01/19 12:18:18;;;;;;;;;;;;;;;3.46;78.41;100369.84;106407;1271;59397;-81
2023/01/19 12:20:46;;;;;;;;;;;;;;;3.44;78.27;100365.05;106590;1273;73690;-82
2023/01/19 12:23:20;;;;;;;;;;;;;;;3.39;78.06;100361.34;106350;1270;124998;-81
2023/01/19 12:25:59;;;;;;;;;;;;;;;3.30;77.92;100361.27;106626;1270;72624;-82
2023/01/19 12:28:31;;;;;;;;;;;;;;;3.22;77.84;100362.44;106577;1270;124500;-82
2023/01/19 12:30:59;;;;;;;;;;;;;;;3.15;77.81;100364.52;106304;1269;61388;-81
2023/01/19 12:33:27;;;;;;;;;;;;;;;3.10;77.87;100362.23;106570;1270;73710;-81
2023/01/19 12:35:56;;;;;;;;;;;;;;;3.10;77.93;100365.34;106442;1270;123872;-80
2023/01/19 12:38:34;;;;;;;;;;;;;;;3.09;77.88;100365.12;106446;1270;73268;-80
2023/01/19 12:41:20;;;;;;;;;;;;;;;3.06;77.83;100365.98;107207;1273;126964;-80
2023/01/19 12:43:48;;;;;;;;;;;;;;;3.02;77.90;100367.38;106494;1270;59541;-81
2023/01/19 12:46:33;;;;;;;;;;;;;;;2.99;77.89;100365.83;106747;1270;124040;-80
2023/01/19 12:49:10;;;;;;;;;;;;;;;2.91;77.83;100368.41;106924;1271;66820;-80
2023/01/19 12:51:37;;;;;;;;;;;;;;;2.84;77.72;100369.95;106692;1270;70474;-81
2023/01/19 12:54:05;;;;;;;;;;;;;;;2.80;77.86;100367.46;106812;1270;61243;-81
2023/01/19 12:56:33;;;;;;;;;;;;;;;2.77;77.98;100365.24;106704;1270;59644;-80
2023/01/19 12:59:00;;;;;;;;;;;;;;;2.75;78.07;100366.21;106604;1270;125032;-80
2023/01/19 13:01:28;;;;;;;;;;;;;;;2.72;78.17;100364.88;107790;1270;67472;-81
2023/01/19 13:03:58;;;;;;;;;;;;;;;2.69;77.98;100360.70;107692;1270;124715;-81
2023/01/19 13:06:44;;;;;;;;;;;;;;;2.66;78.02;100360.54;106991;1272;61442;-80
2023/01/19 13:09:33;;;;;;;;;;;;;;;2.61;78.01;100363.42;106978;1270;61201;-81
2023/01/19 13:12:10;;;;;;;;;;;;;;;2.57;77.87;100369.80;106269;1273;124334;-87
2023/01/19 13:15:24;;;;;;;;;;;;;;;2.57;78.03;100371.54;106278;1270;65941;-85
2023/01/19 13:17:53;;;;;;;;;;;;;;;2.65;78.40;100370.06;106189;1270;125281;-90